Time;durP1;ratioP1;P1;durP2;ratioP2;P2;SDS_P1;SDS_P2;PMS_P1;PMS_P2;Temp;Humidity;BMP_temperature;BMP_pressure;BME280_temperature;BME280_humidity;BME280_pressure;Samples;Min_cycle;Max_cycle;Signal;HPM_P1;HPM_P2
2023/02/15 00:00:07;;;;;;;;;;;21.10;57.60;;;;;;1610433;73;1142;-62
2023/02/15 00:02:09;;;;;;;;;;;21.00;57.60;;;;;;1592107;73;763;-62
2023/02/15 00:04:13;;;;;;;;;;;21.00;57.60;;;;;;1591296;73;1527;-61
2023/02/15 00:06:15;;;;;;;;;;;21.10;59.20;;;;;;1581590;73;1802;-60
2023/02/15 00:08:17;;;;;;;;;;;21.00;58.60;;;;;;1588794;73;739;-71
2023/02/15 00:10:18;;;;;;;;;;;20.90;58.50;;;;;;1593063;73;1098;-67
2023/02/15 00:12:20;;;;;;;;;;;21.00;58.40;;;;;;1608203;73;1090;-68
2023/02/15 00:14:23;;;;;;;;;;;21.00;58.40;;;;;;1592834;73;1930;-68
2023/02/15 00:16:25;;;;;;;;;;;21.00;58.30;;;;;;1594426;73;709;-70
2023/02/15 00:18:27;;;;;;;;;;;21.00;57.60;;;;;;1590485;73;1603;-66
2023/02/15 00:20:29;;;;;;;;;;;21.00;57.60;;;;;;1591327;73;1195;-66
2023/02/15 00:22:30;;;;;;;;;;;21.00;57.60;;;;;;1589307;73;710;-64
2023/02/15 00:24:32;;;;;;;;;;;21.00;57.50;;;;;;1604324;73;707;-67
2023/02/15 00:26:34;;;;;;;;;;;21.10;57.50;;;;;;1591114;73;730;-70
2023/02/15 00:28:36;;;;;;;;;;;21.00;57.30;;;;;;1599372;73;691;-64
2023/02/15 00:30:38;;;;;;;;;;;21.00;57.20;;;;;;1592543;73;1135;-65
2023/02/15 00:32:40;;;;;;;;;;;21.00;57.20;;;;;;1597141;73;1382;-65
2023/02/15 00:34:43;;;;;;;;;;;21.00;57.20;;;;;;1587183;73;1923;-64
2023/02/15 00:36:45;;;;;;;;;;;21.00;57.00;;;;;;1595745;73;702;-64
2023/02/15 00:38:46;;;;;;;;;;;21.00;56.90;;;;;;1600175;73;740;-65
2023/02/15 00:40:50;;;;;;;;;;;21.10;56.90;;;;;;1586153;73;1116;-64
2023/02/15 00:42:52;;;;;;;;;;;21.00;57.00;;;;;;1596740;73;1892;-66
2023/02/15 00:44:54;;;;;;;;;;;21.00;57.10;;;;;;1603964;73;782;-66
2023/02/15 00:46:56;;;;;;;;;;;21.10;57.30;;;;;;1592151;73;1522;-69
2023/02/15 00:48:58;;;;;;;;;;;21.00;57.20;;;;;;1591434;73;704;-64
2023/02/15 00:51:00;;;;;;;;;;;21.10;57.30;;;;;;1598770;73;1306;-64
2023/02/15 00:53:02;;;;;;;;;;;21.10;57.10;;;;;;1603761;73;646;-67
2023/02/15 00:55:04;;;;;;;;;;;21.10;56.80;;;;;;1605547;73;1924;-69
2023/02/15 00:57:06;;;;;;;;;;;21.10;56.80;;;;;;1594297;73;692;-68
2023/02/15 00:59:09;;;;;;;;;;;21.10;56.80;;;;;;1599874;73;755;-64
2023/02/15 01:01:11;;;;;;;;;;;21.20;56.50;;;;;;1595828;73;1623;-65
2023/02/15 01:03:15;;;;;;;;;;;21.10;56.50;;;;;;1601963;73;759;-63
2023/02/15 01:05:17;;;;;;;;;;;21.20;56.40;;;;;;1602808;73;700;-64
2023/02/15 01:07:19;;;;;;;;;;;21.20;56.40;;;;;;1600523;73;733;-68
2023/02/15 01:09:22;;;;;;;;;;;21.20;56.30;;;;;;1593463;73;657;-62
2023/02/15 01:11:24;;;;;;;;;;;21.30;56.40;;;;;;1577131;73;1112;-62
2023/02/15 01:13:25;;;;;;;;;;;21.20;57.00;;;;;;1573373;73;690;-61
2023/02/15 01:15:27;;;;;;;;;;;21.10;56.60;;;;;;1588080;73;1938;-61
2023/02/15 01:17:29;;;;;;;;;;;21.10;56.60;;;;;;1577995;73;786;-61
2023/02/15 01:19:31;;;;;;;;;;;21.10;56.50;;;;;;1597277;73;736;-60
2023/02/15 01:21:34;;;;;;;;;;;21.20;56.50;;;;;;1575054;73;1125;-61
2023/02/15 01:23:37;;;;;;;;;;;21.10;56.50;;;;;;1586985;73;877;-61
2023/02/15 01:25:38;;;;;;;;;;;21.20;56.50;;;;;;1581137;73;787;-62
2023/02/15 01:27:40;;;;;;;;;;;21.20;56.40;;;;;;1574115;73;726;-62
2023/02/15 01:29:42;;;;;;;;;;;21.10;56.40;;;;;;1578597;73;1596;-62
2023/02/15 01:31:44;;;;;;;;;;;21.10;56.40;;;;;;1593950;73;709;-62
2023/02/15 01:33:46;;;;;;;;;;;21.20;56.50;;;;;;1593702;73;720;-61
2023/02/15 01:35:48;;;;;;;;;;;21.10;56.50;;;;;;1593872;73;1930;-61
2023/02/15 01:37:50;;;;;;;;;;;21.20;56.40;;;;;;1583520;73;727;-60
2023/02/15 01:39:53;;;;;;;;;;;21.20;56.40;;;;;;1590418;73;1124;-61
2023/02/15 01:41:55;;;;;;;;;;;21.20;56.50;;;;;;1575983;73;715;-60
2023/02/15 01:43:58;;;;;;;;;;;21.10;56.60;;;;;;1575493;73;1665;-60
2023/02/15 01:45:59;;;;;;;;;;;21.20;56.50;;;;;;1577394;73;767;-61
2023/02/15 01:48:22;;;;;;;;;;;21.10;56.50;;;;;;1593830;73;736;-61
2023/02/15 01:50:25;;;;;;;;;;;21.10;56.50;;;;;;1570432;73;1546;-63
2023/02/15 01:52:27;;;;;;;;;;;21.20;56.50;;;;;;1596386;73;725;-61
2023/02/15 01:54:31;;;;;;;;;;;21.10;56.50;;;;;;1578690;73;1940;-63
2023/02/15 01:56:34;;;;;;;;;;;21.10;56.60;;;;;;1583331;73;1841;-62
2023/02/15 01:58:35;;;;;;;;;;;21.20;56.50;;;;;;1577119;73;769;-61
2023/02/15 02:00:37;;;;;;;;;;;21.10;56.50;;;;;;1585206;73;1142;-62
2023/02/15 02:02:40;;;;;;;;;;;21.20;56.50;;;;;;1584846;73;719;-62
2023/02/15 02:04:44;;;;;;;;;;;21.10;56.50;;;;;;1599214;73;725;-62
2023/02/15 02:06:46;;;;;;;;;;;21.10;56.40;;;;;;1599293;73;726;-62
2023/02/15 02:08:48;;;;;;;;;;;21.10;56.40;;;;;;1589897;73;825;-61
2023/02/15 02:10:50;;;;;;;;;;;21.10;56.40;;;;;;1568157;73;1654;-63
2023/02/15 02:12:53;;;;;;;;;;;21.10;56.40;;;;;;1580147;73;998;-63
2023/02/15 02:14:55;;;;;;;;;;;21.20;56.40;;;;;;1595642;73;1909;-61
2023/02/15 02:16:59;;;;;;;;;;;21.20;56.40;;;;;;1585207;73;698;-62
2023/02/15 02:19:02;;;;;;;;;;;21.10;56.30;;;;;;1593840;73;681;-62
2023/02/15 02:21:15;;;;;;;;;;;21.20;56.30;;;;;;1600591;73;2232;-63
2023/02/15 02:23:27;;;;;;;;;;;21.20;56.30;;;;;;1590232;73;1870;-62
2023/02/15 02:25:37;;;;;;;;;;;21.20;56.30;;;;;;1584245;73;1946;-63
2023/02/15 02:27:42;;;;;;;;;;;21.10;56.30;;;;;;1603102;73;796;-62
2023/02/15 02:30:02;;;;;;;;;;;21.10;56.30;;;;;;1584243;73;1114;-62
2023/02/15 02:32:22;;;;;;;;;;;21.10;56.40;;;;;;1596787;73;891;-62
2023/02/15 02:34:25;;;;;;;;;;;21.10;56.40;;;;;;1583332;73;1926;-62
2023/02/15 02:36:44;;;;;;;;;;;21.20;56.50;;;;;;1595372;73;686;-60
2023/02/15 02:38:48;;;;;;;;;;;21.10;56.50;;;;;;1597951;73;1317;-61
2023/02/15 02:40:51;;;;;;;;;;;21.10;56.80;;;;;;1585116;73;1096;-60
2023/02/15 02:43:03;;;;;;;;;;;21.10;57.30;;;;;;1601443;73;2051;-59
2023/02/15 02:45:06;;;;;;;;;;;21.00;57.20;;;;;;1592796;73;668;-60
2023/02/15 02:47:12;;;;;;;;;;;20.90;57.60;;;;;;1596424;73;734;-61
2023/02/15 02:49:14;;;;;;;;;;;20.90;57.70;;;;;;1584365;73;726;-61
2023/02/15 02:51:21;;;;;;;;;;;20.90;58.20;;;;;;1589572;73;1153;-61
2023/02/15 02:53:20;;;;;;;;;;;20.80;58.20;;;;;;1542281;76;1591;-62
2023/02/15 02:55:32;;;;;;;;;;;20.80;58.50;;;;;;1542933;76;1922;-62
2023/02/15 02:57:33;;;;;;;;;;;20.80;58.30;;;;;;1538835;76;721;-62
2023/02/15 02:59:37;;;;;;;;;;;20.90;57.60;;;;;;1538454;76;742;-61
2023/02/15 03:01:57;;;;;;;;;;;20.90;57.40;;;;;;1543733;76;1150;-68
2023/02/15 03:04:06;;;;;;;;;;;21.00;57.20;;;;;;1533819;76;748;-67
2023/02/15 03:06:13;;;;;;;;;;;21.00;57.10;;;;;;1528493;76;1787;-64
2023/02/15 03:08:21;;;;;;;;;;;21.00;57.10;;;;;;1546540;76;1589;-64
2023/02/15 03:10:19;;;;;;;;;;;21.00;56.90;;;;;;1533809;76;1582;-64
2023/02/15 03:12:21;;;;;;;;;;;21.00;56.80;;;;;;1540564;76;1063;-64
2023/02/15 03:14:23;;;;;;;;;;;21.00;56.80;;;;;;1537221;76;713;-64
2023/02/15 03:16:27;;;;;;;;;;;21.00;56.80;;;;;;1544021;76;727;-64
2023/02/15 03:18:31;;;;;;;;;;;21.10;56.80;;;;;;1545141;76;710;-60
2023/02/15 03:20:34;;;;;;;;;;;21.10;56.90;;;;;;1539493;76;1173;-61
2023/02/15 03:22:40;;;;;;;;;;;21.00;56.60;;;;;;1532815;76;1674;-62
2023/02/15 03:24:46;;;;;;;;;;;21.00;56.60;;;;;;1543595;76;692;-62
2023/02/15 03:26:48;;;;;;;;;;;21.00;56.60;;;;;;1541012;76;773;-62
2023/02/15 03:28:51;;;;;;;;;;;21.00;56.60;;;;;;1545221;76;784;-63
2023/02/15 03:30:54;;;;;;;;;;;21.00;57.10;;;;;;1539000;76;1145;-63
2023/02/15 03:32:56;;;;;;;;;;;21.00;57.00;;;;;;1533416;76;802;-63
2023/02/15 03:34:58;;;;;;;;;;;21.00;57.10;;;;;;1545155;76;1935;-63
2023/02/15 03:37:08;;;;;;;;;;;20.90;57.00;;;;;;1532921;76;753;-62
2023/02/15 03:39:20;;;;;;;;;;;21.00;56.90;;;;;;1537086;76;1954;-61
2023/02/15 03:41:22;;;;;;;;;;;21.00;56.90;;;;;;1537451;76;1194;-61
2023/02/15 03:43:30;;;;;;;;;;;21.00;57.10;;;;;;1545849;76;662;-62
2023/02/15 03:45:31;;;;;;;;;;;21.00;57.00;;;;;;1532886;76;730;-63
2023/02/15 03:47:35;;;;;;;;;;;20.90;57.20;;;;;;1544524;76;679;-62
2023/02/15 03:49:41;;;;;;;;;;;20.90;57.20;;;;;;1535825;76;1567;-62
2023/02/15 03:51:43;;;;;;;;;;;20.90;57.30;;;;;;1537391;76;731;-60
2023/02/15 03:53:45;;;;;;;;;;;20.90;57.30;;;;;;1531776;76;705;-61
2023/02/15 03:55:47;;;;;;;;;;;20.90;57.30;;;;;;1548008;76;1943;-61
2023/02/15 04:02:32;;;;;;;;;;;21.00;56.80;;;;;;1533102;76;1692;-63
2023/02/15 04:04:38;;;;;;;;;;;21.00;56.60;;;;;;1542049;76;1719;-62
2023/02/15 04:06:40;;;;;;;;;;;21.00;56.60;;;;;;1538400;76;759;-60
2023/02/15 04:11:01;;;;;;;;;;;20.90;57.00;;;;;;1532935;76;1134;-62
2023/02/15 04:13:03;;;;;;;;;;;20.90;57.40;;;;;;1537051;76;1124;-61
2023/02/15 04:17:25;;;;;;;;;;;20.90;57.40;;;;;;1543467;76;1297;-62
2023/02/15 04:26:27;;;;;;;;;;;20.90;57.20;;;;;;1536854;76;721;-62
2023/02/15 04:28:28;;;;;;;;;;;20.90;57.10;;;;;;1537503;76;760;-62
2023/02/15 04:30:30;;;;;;;;;;;20.90;57.20;;;;;;1541293;76;1152;-61
2023/02/15 04:32:32;;;;;;;;;;;20.90;57.10;;;;;;1547575;76;1560;-61
2023/02/15 04:34:34;;;;;;;;;;;20.90;57.10;;;;;;1536092;76;700;-62
2023/02/15 04:36:36;;;;;;;;;;;20.90;57.80;;;;;;1545719;76;1924;-61
2023/02/15 04:38:38;;;;;;;;;;;20.80;57.60;;;;;;1544416;76;808;-61
2023/02/15 04:40:40;;;;;;;;;;;20.80;57.60;;;;;;1541703;76;1150;-62
2023/02/15 04:42:42;;;;;;;;;;;20.90;57.50;;;;;;1542421;76;690;-62
2023/02/15 04:44:44;;;;;;;;;;;20.90;57.30;;;;;;1532875;76;739;-62
2023/02/15 04:46:46;;;;;;;;;;;20.90;57.20;;;;;;1540781;76;1620;-62
2023/02/15 04:48:48;;;;;;;;;;;20.90;57.10;;;;;;1538829;76;727;-62
2023/02/15 04:50:50;;;;;;;;;;;20.90;57.50;;;;;;1541238;76;1146;-61
2023/02/15 04:52:51;;;;;;;;;;;20.80;57.10;;;;;;1540240;76;681;-61
2023/02/15 04:54:53;;;;;;;;;;;20.90;57.30;;;;;;1545818;76;781;-63
2023/02/15 04:56:55;;;;;;;;;;;20.90;57.30;;;;;;1543201;76;1932;-61
2023/02/15 04:58:57;;;;;;;;;;;20.90;57.20;;;;;;1544349;76;623;-62
2023/02/15 05:00:59;;;;;;;;;;;21.00;58.60;;;;;;1543115;76;1660;-61
2023/02/15 05:03:01;;;;;;;;;;;20.90;57.40;;;;;;1541900;76;753;-60
2023/02/15 05:05:03;;;;;;;;;;;20.90;57.30;;;;;;1536827;76;690;-61
2023/02/15 05:07:04;;;;;;;;;;;20.90;57.20;;;;;;1549343;76;655;-62
2023/02/15 05:09:06;;;;;;;;;;;21.00;57.10;;;;;;1536939;76;734;-60
2023/02/15 05:11:08;;;;;;;;;;;20.90;57.20;;;;;;1549811;76;1062;-61
2023/02/15 05:13:10;;;;;;;;;;;20.90;57.10;;;;;;1535935;76;1082;-62
2023/02/15 05:15:12;;;;;;;;;;;20.90;57.10;;;;;;1548097;76;2085;-63
2023/02/15 05:17:14;;;;;;;;;;;20.80;57.00;;;;;;1537265;76;734;-62
2023/02/15 05:19:16;;;;;;;;;;;20.90;57.10;;;;;;1540843;76;755;-61
2023/02/15 05:21:18;;;;;;;;;;;20.90;57.30;;;;;;1550013;76;1134;-60
2023/02/15 05:23:19;;;;;;;;;;;20.80;57.20;;;;;;1538661;76;744;-62
2023/02/15 05:30:02;;;;;;;;;;;20.90;57.00;;;;;;1537965;76;1647;-61
2023/02/15 05:32:04;;;;;;;;;;;20.90;57.10;;;;;;1534869;76;721;-62
2023/02/15 05:34:05;;;;;;;;;;;20.90;57.10;;;;;;1541618;76;793;-62
2023/02/15 05:36:07;;;;;;;;;;;20.90;57.10;;;;;;1543719;76;1927;-61
2023/02/15 05:38:09;;;;;;;;;;;20.90;57.10;;;;;;1542644;76;668;-61
2023/02/15 05:40:11;;;;;;;;;;;20.90;57.10;;;;;;1544645;76;1149;-61
2023/02/15 05:42:13;;;;;;;;;;;20.90;57.10;;;;;;1539324;76;1533;-61
2023/02/15 05:44:15;;;;;;;;;;;20.80;57.00;;;;;;1541282;76;770;-62
2023/02/15 05:46:17;;;;;;;;;;;20.80;57.10;;;;;;1538585;76;799;-63
2023/02/15 05:48:19;;;;;;;;;;;20.80;57.60;;;;;;1544620;76;778;-63
2023/02/15 05:50:21;;;;;;;;;;;20.80;59.00;;;;;;1545357;76;1114;-64
2023/02/15 05:52:23;;;;;;;;;;;20.70;58.90;;;;;;1543691;76;785;-63
2023/02/15 05:54:24;;;;;;;;;;;20.70;59.60;;;;;;1556406;76;634;-63
2023/02/15 05:56:26;;;;;;;;;;;20.70;59.50;;;;;;1548775;76;1939;-62
2023/02/15 05:58:29;;;;;;;;;;;20.70;59.50;;;;;;1543496;76;717;-64
2023/02/15 06:00:31;;;;;;;;;;;20.70;59.40;;;;;;1543665;76;1145;-62
2023/02/15 06:02:36;;;;;;;;;;;20.70;59.20;;;;;;1540527;76;694;-61
2023/02/15 06:04:38;;;;;;;;;;;20.80;58.80;;;;;;1541310;76;727;-63
2023/02/15 06:06:40;;;;;;;;;;;20.80;58.70;;;;;;1535793;76;725;-63
2023/02/15 06:08:42;;;;;;;;;;;20.80;58.60;;;;;;1538344;76;765;-62
2023/02/15 06:10:46;;;;;;;;;;;20.80;58.50;;;;;;1537723;76;1310;-61
2023/02/15 06:12:47;;;;;;;;;;;21.00;58.40;;;;;;1539912;76;735;-62
2023/02/15 06:14:49;;;;;;;;;;;21.00;58.20;;;;;;1548358;76;1102;-63
2023/02/15 06:16:51;;;;;;;;;;;21.00;58.30;;;;;;1534960;76;1936;-63
2023/02/15 06:18:53;;;;;;;;;;;20.90;58.30;;;;;;1535384;76;732;-61
2023/02/15 06:20:55;;;;;;;;;;;20.90;57.70;;;;;;1536082;76;1210;-63
2023/02/15 06:22:57;;;;;;;;;;;21.00;57.80;;;;;;1541484;76;790;-62
2023/02/15 06:24:59;;;;;;;;;;;21.00;57.70;;;;;;1536769;76;1550;-63
2023/02/15 06:27:00;;;;;;;;;;;21.00;58.20;;;;;;1534865;76;693;-62
2023/02/15 06:29:02;;;;;;;;;;;21.00;58.50;;;;;;1546810;76;690;-60
2023/02/15 06:31:05;;;;;;;;;;;20.90;58.40;;;;;;1537807;76;1108;-61
2023/02/15 06:33:07;;;;;;;;;;;21.00;57.60;;;;;;1539552;76;737;-62
2023/02/15 06:35:09;;;;;;;;;;;20.90;57.40;;;;;;1543323;76;717;-61
2023/02/15 06:37:10;;;;;;;;;;;20.90;57.30;;;;;;1534844;76;1947;-62
2023/02/15 06:39:12;;;;;;;;;;;21.00;57.10;;;;;;1537854;76;1673;-61
2023/02/15 06:41:14;;;;;;;;;;;20.90;57.10;;;;;;1543087;76;1130;-61
2023/02/15 06:43:16;;;;;;;;;;;21.00;57.00;;;;;;1535766;76;681;-60
2023/02/15 06:45:18;;;;;;;;;;;20.90;56.90;;;;;;1535740;76;692;-61
2023/02/15 06:47:20;;;;;;;;;;;20.90;56.80;;;;;;1534999;76;681;-62
2023/02/15 06:49:22;;;;;;;;;;;20.90;56.70;;;;;;1541939;76;806;-62
2023/02/15 06:51:24;;;;;;;;;;;20.90;56.70;;;;;;1536710;76;1139;-61
2023/02/15 06:53:26;;;;;;;;;;;20.90;56.60;;;;;;1540292;76;1592;-60
2023/02/15 06:55:27;;;;;;;;;;;20.90;56.60;;;;;;1536137;76;729;-61
2023/02/15 06:57:30;;;;;;;;;;;20.90;56.50;;;;;;1536617;76;1932;-62
2023/02/15 06:59:31;;;;;;;;;;;20.90;56.50;;;;;;1543265;76;768;-60
2023/02/15 07:01:33;;;;;;;;;;;20.90;56.50;;;;;;1551350;76;1215;-62
2023/02/15 07:03:36;;;;;;;;;;;20.90;56.50;;;;;;1538786;76;775;-62
2023/02/15 07:05:37;;;;;;;;;;;20.90;56.50;;;;;;1543368;76;722;-61
2023/02/15 07:07:39;;;;;;;;;;;20.90;56.40;;;;;;1541063;76;1433;-60
2023/02/15 07:09:41;;;;;;;;;;;21.00;56.40;;;;;;1544444;76;1152;-59
2023/02/15 07:14:02;;;;;;;;;;;20.90;56.40;;;;;;1541631;76;1702;-60
2023/02/15 07:16:04;;;;;;;;;;;20.90;56.30;;;;;;1537703;76;1955;-60
2023/02/15 07:18:06;;;;;;;;;;;20.90;56.30;;;;;;1533070;76;729;-61
2023/02/15 07:20:10;;;;;;;;;;;20.90;56.30;;;;;;1537606;76;1349;-62
2023/02/15 07:22:12;;;;;;;;;;;20.90;56.30;;;;;;1544374;76;732;-60
2023/02/15 07:24:14;;;;;;;;;;;20.90;56.30;;;;;;1544590;76;758;-61
2023/02/15 07:26:16;;;;;;;;;;;20.90;56.30;;;;;;1548070;76;820;-61
2023/02/15 07:28:18;;;;;;;;;;;20.90;56.30;;;;;;1542807;76;797;-60
2023/02/15 07:30:19;;;;;;;;;;;20.90;56.30;;;;;;1537837;76;1144;-61
2023/02/15 07:32:21;;;;;;;;;;;20.90;56.30;;;;;;1536098;76;662;-61
2023/02/15 07:34:23;;;;;;;;;;;20.90;56.30;;;;;;1540078;76;1539;-63
2023/02/15 07:36:25;;;;;;;;;;;20.80;56.10;;;;;;1541908;76;1937;-61
2023/02/15 07:38:27;;;;;;;;;;;20.90;56.20;;;;;;1544972;76;717;-60
2023/02/15 07:40:29;;;;;;;;;;;20.80;56.10;;;;;;1543910;76;1133;-61
2023/02/15 07:42:31;;;;;;;;;;;20.80;56.20;;;;;;1553886;76;901;-60
2023/02/15 07:44:33;;;;;;;;;;;20.80;56.30;;;;;;1544255;76;755;-59
2023/02/15 07:46:35;;;;;;;;;;;20.90;56.30;;;;;;1541637;76;721;-62
2023/02/15 07:48:37;;;;;;;;;;;20.90;56.20;;;;;;1549361;76;1593;-62
2023/02/15 07:50:38;;;;;;;;;;;20.80;56.10;;;;;;1536002;76;1182;-61
2023/02/15 07:52:40;;;;;;;;;;;20.90;56.30;;;;;;1541136;76;950;-61
2023/02/15 07:54:42;;;;;;;;;;;20.90;56.30;;;;;;1547890;76;832;-61
2023/02/15 07:56:44;;;;;;;;;;;20.90;56.30;;;;;;1542016;76;1921;-61
2023/02/15 07:58:52;;;;;;;;;;;21.00;56.30;;;;;;1546542;76;732;-61
2023/02/15 08:00:58;;;;;;;;;;;21.00;56.30;;;;;;1537245;76;1162;-63
2023/02/15 08:03:15;;;;;;;;;;;20.90;56.30;;;;;;1545401;76;1399;-61
2023/02/15 08:05:18;;;;;;;;;;;20.90;56.40;;;;;;1541128;76;734;-60
2023/02/15 08:07:19;;;;;;;;;;;20.80;56.40;;;;;;1544463;76;784;-61
2023/02/15 08:09:21;;;;;;;;;;;20.80;56.50;;;;;;1548784;76;887;-61
2023/02/15 08:11:32;;;;;;;;;;;20.80;56.70;;;;;;1536931;76;1126;-61
2023/02/15 08:13:30;;;;;;;;;;;20.80;56.80;;;;;;1537827;76;1603;-62
2023/02/15 08:15:32;;;;;;;;;;;20.70;56.90;;;;;;1538128;76;1095;-62
2023/02/15 08:17:35;;;;;;;;;;;20.80;57.10;;;;;;1552238;76;1940;-61
2023/02/15 08:19:37;;;;;;;;;;;20.80;57.30;;;;;;1550363;76;746;-60
2023/02/15 08:21:40;;;;;;;;;;;20.80;58.40;;;;;;1546175;75;1201;-61
2023/02/15 08:23:42;;;;;;;;;;;20.80;59.00;;;;;;1547394;76;682;-61
2023/02/15 08:25:44;;;;;;;;;;;20.80;59.40;;;;;;1547346;75;697;-61
2023/02/15 08:27:46;;;;;;;;;;;20.80;60.20;;;;;;1550116;75;642;-60
2023/02/15 08:29:48;;;;;;;;;;;20.90;59.40;;;;;;1551562;75;1123;-61
2023/02/15 08:31:50;;;;;;;;;;;20.90;59.10;;;;;;1547403;75;1625;-61
2023/02/15 08:33:52;;;;;;;;;;;20.90;59.00;;;;;;1549918;76;728;-61
2023/02/15 08:35:54;;;;;;;;;;;20.90;58.90;;;;;;1557209;75;761;-61
2023/02/15 08:37:56;;;;;;;;;;;20.90;58.90;;;;;;1546027;75;1954;-61
2023/02/15 08:39:58;;;;;;;;;;;20.90;58.90;;;;;;1553408;76;1150;-61
2023/02/15 08:42:00;;;;;;;;;;;20.90;58.90;;;;;;1557090;76;814;-61
2023/02/15 08:44:03;;;;;;;;;;;20.90;59.00;;;;;;1548737;76;789;-61
2023/02/15 08:46:06;;;;;;;;;;;20.90;59.00;;;;;;1546405;76;1647;-61
2023/02/15 08:48:08;;;;;;;;;;;20.90;59.00;;;;;;1543354;76;783;-60
2023/02/15 08:50:10;;;;;;;;;;;20.90;59.00;;;;;;1546795;76;1102;-61
2023/02/15 08:52:11;;;;;;;;;;;20.80;58.90;;;;;;1552151;76;740;-61
2023/02/15 08:54:14;;;;;;;;;;;20.90;59.00;;;;;;1543570;76;679;-61
2023/02/15 08:56:16;;;;;;;;;;;20.80;58.90;;;;;;1548287;76;785;-60
2023/02/15 08:58:18;;;;;;;;;;;20.80;58.90;;;;;;1553876;75;1934;-61
2023/02/15 09:00:22;;;;;;;;;;;20.90;59.00;;;;;;1545424;76;1186;-61
2023/02/15 09:02:24;;;;;;;;;;;20.90;58.90;;;;;;1543267;76;670;-61
2023/02/15 09:04:26;;;;;;;;;;;20.90;59.00;;;;;;1544247;75;741;-60
2023/02/15 09:06:27;;;;;;;;;;;20.90;58.90;;;;;;1551117;75;706;-60
2023/02/15 09:08:29;;;;;;;;;;;20.90;58.90;;;;;;1546573;76;724;-60
2023/02/15 09:10:31;;;;;;;;;;;21.00;58.90;;;;;;1547346;75;1142;-60
2023/02/15 09:12:33;;;;;;;;;;;20.90;58.90;;;;;;1543186;76;1524;-61
2023/02/15 09:14:35;;;;;;;;;;;20.90;59.00;;;;;;1545487;75;703;-62
2023/02/15 09:16:37;;;;;;;;;;;20.80;60.00;;;;;;1545408;76;1923;-62
2023/02/15 09:18:39;;;;;;;;;;;20.80;60.40;;;;;;1548899;76;742;-64
2023/02/15 09:20:41;;;;;;;;;;;20.70;60.80;;;;;;1538062;76;1151;-63
2023/02/15 09:22:43;;;;;;;;;;;20.80;60.20;;;;;;1535890;76;814;-63
2023/02/15 09:24:45;;;;;;;;;;;20.80;59.20;;;;;;1546160;76;738;-62
2023/02/15 09:26:47;;;;;;;;;;;20.90;58.90;;;;;;1536666;76;1523;-63
2023/02/15 09:28:51;;;;;;;;;;;20.90;58.70;;;;;;1543470;76;783;-62
2023/02/15 09:30:52;;;;;;;;;;;21.00;58.60;;;;;;1534837;76;1103;-63
2023/02/15 09:32:54;;;;;;;;;;;21.00;58.40;;;;;;1544885;76;730;-63
2023/02/15 09:34:56;;;;;;;;;;;21.10;58.40;;;;;;1541437;76;708;-63
2023/02/15 09:36:58;;;;;;;;;;;21.10;58.30;;;;;;1550229;76;1931;-63
2023/02/15 09:39:07;;;;;;;;;;;21.10;57.80;;;;;;1549692;76;676;-64
2023/02/15 09:41:23;;;;;;;;;;;21.20;57.70;;;;;;1550485;76;1364;-64
2023/02/15 09:43:26;;;;;;;;;;;21.10;57.60;;;;;;1552784;76;699;-63
2023/02/15 09:45:36;;;;;;;;;;;21.10;57.60;;;;;;1541096;76;1891;-63
2023/02/15 09:47:45;;;;;;;;;;;21.20;57.50;;;;;;1535789;76;1078;-63
2023/02/15 09:49:51;;;;;;;;;;;21.10;57.50;;;;;;1541457;76;1897;-64
2023/02/15 09:51:55;;;;;;;;;;;21.10;57.40;;;;;;1497284;76;1045;-64
2023/02/15 09:54:00;;;;;;;;;;;21.20;57.40;;;;;;1541379;76;800;-64
2023/02/15 09:56:13;;;;;;;;;;;21.10;57.30;;;;;;1538974;76;1600;-63
2023/02/15 09:58:35;;;;;;;;;;;21.20;57.30;;;;;;1532887;76;1936;-64
2023/02/15 10:00:38;;;;;;;;;;;21.30;57.30;;;;;;1543900;76;1174;-64
2023/02/15 10:02:51;;;;;;;;;;;21.30;57.30;;;;;;1543061;76;1953;-64
2023/02/15 10:05:00;;;;;;;;;;;21.20;57.20;;;;;;1542798;76;667;-64
2023/02/15 10:07:20;;;;;;;;;;;21.20;57.10;;;;;;1540544;76;815;-64
2023/02/15 10:09:26;;;;;;;;;;;21.30;57.20;;;;;;1536489;76;1573;-64
2023/02/15 10:11:39;;;;;;;;;;;21.30;57.10;;;;;;1538986;76;1107;-63
2023/02/15 10:13:43;;;;;;;;;;;21.20;57.00;;;;;;1538308;76;1886;-65
2023/02/15 10:15:51;;;;;;;;;;;21.30;57.10;;;;;;1537290;76;1466;-66
2023/02/15 10:17:51;;;;;;;;;;;21.30;57.10;;;;;;1540444;76;1948;-64
2023/02/15 10:19:57;;;;;;;;;;;21.40;57.00;;;;;;1531314;76;1611;-63
2023/02/15 10:22:00;;;;;;;;;;;21.30;57.10;;;;;;1537957;76;1672;-64
2023/02/15 10:24:12;;;;;;;;;;;21.30;57.00;;;;;;1548563;76;1618;-64
2023/02/15 10:26:16;;;;;;;;;;;21.40;57.00;;;;;;1534253;76;777;-64
2023/02/15 10:28:18;;;;;;;;;;;21.30;57.00;;;;;;1541105;76;641;-63
2023/02/15 10:30:22;;;;;;;;;;;21.40;56.90;;;;;;1537103;76;1126;-63
2023/02/15 10:32:25;;;;;;;;;;;21.40;56.90;;;;;;1501434;76;1047;-64
2023/02/15 10:34:35;;;;;;;;;;;21.40;56.90;;;;;;1548519;76;700;-64
2023/02/15 10:36:39;;;;;;;;;;;21.40;56.80;;;;;;1545308;76;2134;-63
2023/02/15 10:38:45;;;;;;;;;;;21.40;56.80;;;;;;1537783;76;1937;-63
2023/02/15 10:40:48;;;;;;;;;;;21.50;56.90;;;;;;1538252;76;1160;-63
2023/02/15 10:43:11;;;;;;;;;;;21.40;56.60;;;;;;1531798;76;2043;-63
2023/02/15 10:45:14;;;;;;;;;;;21.50;56.80;;;;;;1541030;76;982;-65
2023/02/15 10:47:23;;;;;;;;;;;21.50;56.80;;;;;;1541563;76;2402;-66
2023/02/15 10:49:26;;;;;;;;;;;21.50;56.80;;;;;;1551933;76;1451;-64
2023/02/15 10:51:32;;;;;;;;;;;21.50;56.80;;;;;;1536174;76;1512;-64
2023/02/15 10:53:39;;;;;;;;;;;21.40;56.60;;;;;;1541296;76;628;-64
2023/02/15 10:55:48;;;;;;;;;;;21.50;56.80;;;;;;1530408;76;764;-63
2023/02/15 10:57:52;;;;;;;;;;;21.50;56.80;;;;;;1500215;76;1953;-63
2023/02/15 11:00:12;;;;;;;;;;;21.40;56.70;;;;;;1554988;76;1121;-63
2023/02/15 11:02:22;;;;;;;;;;;21.50;56.80;;;;;;1541350;76;728;-63
2023/02/15 11:04:37;;;;;;;;;;;21.40;56.70;;;;;;1542013;76;708;-63
2023/02/15 11:06:40;;;;;;;;;;;21.40;56.70;;;;;;1552092;76;1684;-66
2023/02/15 11:08:46;;;;;;;;;;;21.40;56.70;;;;;;1535649;76;846;-65
2023/02/15 11:10:52;;;;;;;;;;;21.40;56.60;;;;;;1549742;76;1889;-66
2023/02/15 11:12:54;;;;;;;;;;;21.40;56.60;;;;;;1541019;76;679;-65
2023/02/15 11:14:59;;;;;;;;;;;21.50;56.80;;;;;;1536048;76;680;-65
2023/02/15 11:17:02;;;;;;;;;;;21.40;56.70;;;;;;1531223;76;1068;-65
2023/02/15 11:19:06;;;;;;;;;;;21.50;56.70;;;;;;1539820;76;1939;-65
2023/02/15 11:21:09;;;;;;;;;;;21.50;56.60;;;;;;1540646;76;1190;-65
2023/02/15 11:23:15;;;;;;;;;;;21.50;56.60;;;;;;1535343;76;744;-67
2023/02/15 11:25:20;;;;;;;;;;;21.50;56.60;;;;;;1549072;76;1564;-65
2023/02/15 11:27:23;;;;;;;;;;;21.50;56.50;;;;;;1544080;76;807;-65
2023/02/15 11:29:27;;;;;;;;;;;21.50;56.50;;;;;;1534908;76;739;-67
2023/02/15 11:31:30;;;;;;;;;;;21.50;56.50;;;;;;1545051;76;1131;-68
2023/02/15 11:33:34;;;;;;;;;;;21.50;56.50;;;;;;1533763;76;1535;-65
2023/02/15 11:35:40;;;;;;;;;;;21.50;56.50;;;;;;1535707;76;1880;-68
2023/02/15 11:37:43;;;;;;;;;;;21.50;56.50;;;;;;1545863;76;1936;-65
2023/02/15 11:39:51;;;;;;;;;;;21.50;56.50;;;;;;1535004;76;1144;-65
2023/02/15 11:41:51;;;;;;;;;;;21.50;56.50;;;;;;1532603;76;1450;-65
2023/02/15 11:43:55;;;;;;;;;;;21.40;56.30;;;;;;1537498;76;781;-66
2023/02/15 11:45:57;;;;;;;;;;;21.40;56.40;;;;;;1527677;76;1635;-65
2023/02/15 11:47:59;;;;;;;;;;;21.50;56.50;;;;;;1548139;76;1556;-67
2023/02/15 11:50:00;;;;;;;;;;;21.50;56.40;;;;;;1541045;76;1136;-68
2023/02/15 11:52:03;;;;;;;;;;;21.50;56.40;;;;;;1539463;76;636;-68
2023/02/15 11:54:05;;;;;;;;;;;21.50;56.40;;;;;;1533133;76;734;-65
2023/02/15 11:56:09;;;;;;;;;;;21.50;56.40;;;;;;1538413;76;691;-66
2023/02/15 11:58:30;;;;;;;;;;;21.50;56.40;;;;;;1536039;76;1940;-65
2023/02/15 12:00:39;;;;;;;;;;;21.50;56.50;;;;;;1547386;76;1156;-68
2023/02/15 12:02:42;;;;;;;;;;;21.50;56.40;;;;;;1552669;76;1605;-65
2023/02/15 12:04:45;;;;;;;;;;;21.50;56.30;;;;;;1539099;76;774;-68
2023/02/15 12:06:51;;;;;;;;;;;21.50;56.40;;;;;;1537659;76;730;-64
2023/02/15 12:08:55;;;;;;;;;;;21.50;56.30;;;;;;1533208;76;674;-65
2023/02/15 12:10:58;;;;;;;;;;;21.50;56.40;;;;;;1549453;76;1215;-67
2023/02/15 12:13:04;;;;;;;;;;;21.40;56.30;;;;;;1540620;76;843;-65
2023/02/15 12:15:07;;;;;;;;;;;21.50;56.40;;;;;;1545634;76;1812;-68
2023/02/15 12:17:10;;;;;;;;;;;21.50;56.30;;;;;;1541449;76;1097;-67
2023/02/15 12:19:20;;;;;;;;;;;21.50;56.30;;;;;;1534906;76;1952;-65
2023/02/15 12:21:26;;;;;;;;;;;21.50;56.20;;;;;;1535184;76;1205;-68
2023/02/15 12:23:28;;;;;;;;;;;21.50;56.30;;;;;;1534322;76;1838;-67
2023/02/15 12:25:37;;;;;;;;;;;21.40;56.20;;;;;;1536139;76;775;-65
2023/02/15 12:27:38;;;;;;;;;;;21.50;56.30;;;;;;1535373;76;684;-65
2023/02/15 12:29:42;;;;;;;;;;;21.40;56.20;;;;;;1525275;77;1329;-66
2023/02/15 12:31:45;;;;;;;;;;;21.40;56.20;;;;;;1547370;76;691;-66
2023/02/15 12:33:47;;;;;;;;;;;21.50;56.30;;;;;;1535319;76;739;-65
2023/02/15 12:35:50;;;;;;;;;;;21.50;56.30;;;;;;1537287;76;1159;-65
2023/02/15 12:37:56;;;;;;;;;;;21.40;56.10;;;;;;1529086;77;1937;-65